Pocasset, MA (02559)

11:47 AM EDT on October 22, 2014 (GMT -0400)
Barlow's Landing | Change Station
CLOSE
Current Station
Personal Weather Station
Location: Bourne, MA
Elevation: 20 ft
Nearby Weather Stations

Elev 20 ft 41.69 °N, 70.63 °W | Updated 3 seconds ago

Mostly Cloudy
Mostly Cloudy
57.0 °F
Feels Like 57.0 °F
N
9.1
Wind Variable Wind from ENE
Gusts 11.5 mph

Today
High -- | Low -- °F
--% Chance of Precip.
Yesterday
High -- | Low -- °F
Precip. -- in
7:02 AM 5:50 PM
Waning Crescent, 2% visible
Pressure 29.89 in
Visibility 1.2 miles
Clouds Mostly Cloudy 500 ft
Dew Point 55 °F
Humidity 93%
Rainfall 0.01 in
Snow Depth Not available.
UV 2 out of 12
Pollen .30 out of 12
Air Quality Not available.
Flu Activity No Activity
METAR KFMH 221535Z AUTO 03015KT 1 1/4SM -RA BKN005 14/14 A2989 RMK AO2

More Conditions Fewer Conditions

Pressure 29.89 in
Visibility 1.2 miles
Clouds Mostly Cloudy 500 ft
Dew Point 55 °F
Humidity 93%
Rainfall 0.01 in
Snow Depth Not available.
UV 2 out of 12
Pollen .30 out of 12
Air Quality Not available.
Flu Activity No Activity
METAR KFMH 221535Z AUTO 03015KT 1 1/4SM -RA BKN005 14/14 A2989 RMK AO2

More Conditions Fewer Conditions

10-Day Weather Forecast

Almanac

Astronomy

Oct. 22, 2014 Rise Set
Actual Time 7:02 AM EDT 5:50 PM EDT
Civil Twilight 6:34 AM EDT 6:18 PM EDT
Nautical Twilight 6:01 AM EDT 6:51 PM EDT
Astronomical Twilight 5:29 AM EDT 7:23 PM EDT
Moon 5:39 AM EDT 5:16 PM EDT
Length of Visible Light 11h 44m
Length of Day
10h 48m
Tomorrow will be 2m 37s shorter.
Waning Crescent, 2% of the Moon is Illuminated
Today
Waning Crescent
Oct 23
New
Oct 30
First Quarter
Nov 6
Full
Nov 14
Last Quarter

Today's Extremes

State Highs State Lows

Community

WunderPhotos

Upload Photos

1,763,953 photos uploaded!

Nearby

Air Quality

  Air Quality AQ Index Pollutant
Yesterday Good
OZONE
Wednesday Good
PM2.5
Thursday Good
PM2.5

Snow Depth

Station Depth Elevation
No new snow has been reported.

Earthquake Activity

City Distance Mag. Time & Date
No recent earthquake activity has been reported nearby.
Minimum magnitude displayed is 2.5.

Coastal Water Temperatures

Place Temperature
Woods Hole, MA 62.1 °F
Fall River, MA 63.0 °F
Newport, RI 62.1 °F

Nearby Weather Stations